Time;durP1;ratioP1;P1;durP2;ratioP2;P2;SDS_P1;SDS_P2;PMS_P1;PMS_P2;Temp;Humidity;BMP_temperature;BMP_pressure;BME280_temperature;BME280_humidity;BME280_pressure;Samples;Min_cycle;Max_cycle;Signal;HPM_P1;HPM_P2
2021/04/03 00:00:31;;;;;;;9.77;4.23;;;6.00;95.10;;;;;;5035427;28;20033;-88
2021/04/03 00:02:57;;;;;;;7.53;3.97;;;5.90;95.30;;;;;;5035390;28;20095;-87
2021/04/03 00:05:26;;;;;;;10.73;4.03;;;5.90;95.50;;;;;;5034854;28;20057;-88
2021/04/03 00:07:52;;;;;;;9.63;3.90;;;5.90;95.60;;;;;;5031247;28;20109;-88
2021/04/03 00:10:30;;;;;;;9.43;4.33;;;5.80;95.40;;;;;;5035214;28;20108;-88
2021/04/03 00:12:57;;;;;;;9.97;4.60;;;5.80;95.70;;;;;;5034804;28;20416;-88
2021/04/03 00:15:23;;;;;;;9.93;4.53;;;5.80;95.90;;;;;;5034303;28;20479;-88
2021/04/03 00:17:49;;;;;;;9.17;4.10;;;5.80;95.70;;;;;;5034217;28;20033;-88
2021/04/03 00:20:17;;;;;;;7.30;3.97;;;5.80;95.60;;;;;;5035263;28;20028;-87
2021/04/03 00:22:44;;;;;;;10.67;4.40;;;5.80;95.50;;;;;;5033241;28;20018;-88
2021/04/03 00:25:13;;;;;;;8.93;4.40;;;5.70;95.70;;;;;;5033050;28;20028;-87
2021/04/03 00:27:40;;;;;;;11.13;4.27;;;5.80;95.90;;;;;;5033318;28;20057;-88
2021/04/03 00:30:17;;;;;;;8.70;4.50;;;5.80;96.10;;;;;;5034704;28;20349;-88
2021/04/03 00:32:48;;;;;;;8.03;4.23;;;5.80;96.00;;;;;;5045655;28;20045;-88
2021/04/03 00:35:16;;;;;;;12.07;5.17;;;5.80;95.70;;;;;;5051975;28;20025;-88
2021/04/03 00:37:42;;;;;;;9.43;4.67;;;5.70;95.70;;;;;;5038097;28;20021;-88
2021/04/03 00:40:18;;;;;;;9.27;4.37;;;5.70;95.70;;;;;;5051699;28;20081;-87
2021/04/03 00:42:44;;;;;;;13.07;5.20;;;5.70;95.70;;;;;;5049224;28;20026;-88
2021/04/03 00:45:11;;;;;;;12.10;4.80;;;5.70;95.60;;;;;;5047401;28;20025;-88
2021/04/03 00:47:36;;;;;;;10.37;4.80;;;5.70;95.70;;;;;;5050445;28;20208;-87
2021/04/03 00:50:03;;;;;;;8.20;3.87;;;5.70;95.60;;;;;;5055345;28;20025;-87
2021/04/03 00:52:29;;;;;;;10.43;4.77;;;5.70;95.40;;;;;;5055981;28;20085;-88
2021/04/03 00:54:55;;;;;;;10.50;5.03;;;5.70;95.50;;;;;;5046535;28;20040;-88
2021/04/03 00:57:21;;;;;;;11.53;5.00;;;5.70;95.70;;;;;;5049841;28;20026;-87
2021/04/03 00:59:47;;;;;;;12.20;5.17;;;5.60;95.70;;;;;;5052769;28;20103;-88
2021/04/03 01:02:12;;;;;;;11.93;4.97;;;5.60;95.80;;;;;;5049439;28;20032;-87
2021/04/03 01:04:38;;;;;;;10.90;4.90;;;5.60;95.70;;;;;;5047643;28;20037;-87
2021/04/03 01:07:05;;;;;;;10.10;4.77;;;5.70;95.50;;;;;;5043268;28;20037;-87
2021/04/03 01:09:40;;;;;;;9.87;4.80;;;5.70;95.60;;;;;;5048388;28;20386;-88
2021/04/03 01:12:26;;;;;;;9.07;4.07;;;5.70;95.40;;;;;;5050184;28;20028;-88
2021/04/03 01:14:58;;;;;;;11.63;4.73;;;5.70;94.80;;;;;;5038640;28;20036;-89
2021/04/03 01:17:45;;;;;;;12.37;4.87;;;5.70;94.50;;;;;;5038082;28;20028;-89
2021/04/03 01:20:19;;;;;;;8.57;4.40;;;5.70;94.50;;;;;;5033610;28;20334;-87
2021/04/03 01:23:07;;;;;;;10.10;4.67;;;5.70;94.70;;;;;;5031286;28;20453;-89
2021/04/03 01:25:57;;;;;;;11.10;4.67;;;5.70;94.40;;;;;;5034438;28;20108;-88
2021/04/03 01:29:01;;;;;;;11.43;4.87;;;5.70;94.10;;;;;;5027002;28;20084;-88
2021/04/03 01:31:27;;;;;;;10.50;4.50;;;5.70;93.70;;;;;;5038676;28;20033;-88
2021/04/03 01:33:55;;;;;;;10.50;4.23;;;5.60;93.70;;;;;;5044015;28;20037;-88
2021/04/03 01:36:23;;;;;;;10.17;5.07;;;5.70;93.80;;;;;;5033628;28;20017;-88
2021/04/03 01:39:03;;;;;;;10.50;3.97;;;5.70;93.90;;;;;;5030191;28;20476;-89
2021/04/03 01:41:32;;;;;;;9.10;4.80;;;5.60;93.60;;;;;;5033032;28;20394;-88
2021/04/03 01:43:59;;;;;;;13.23;4.40;;;5.60;93.50;;;;;;5032888;28;20033;-89
2021/04/03 01:46:28;;;;;;;11.23;4.30;;;5.60;93.60;;;;;;5032395;28;20068;-87
2021/04/03 01:48:56;;;;;;;11.73;4.37;;;5.60;93.40;;;;;;5031999;28;20036;-88
2021/04/03 01:51:23;;;;;;;11.97;4.33;;;5.60;93.40;;;;;;5032859;28;20045;-88
2021/04/03 01:53:50;;;;;;;8.10;4.40;;;5.70;93.30;;;;;;5041922;28;20032;-88
2021/04/03 01:56:18;;;;;;;8.13;4.17;;;5.60;93.20;;;;;;5032800;28;20032;-88
2021/04/03 01:58:45;;;;;;;12.63;5.00;;;5.50;93.40;;;;;;5029766;28;20060;-87
2021/04/03 02:01:15;;;;;;;9.00;3.90;;;5.50;93.60;;;;;;5028731;28;20033;-88
2021/04/03 02:03:41;;;;;;;10.93;4.30;;;5.60;93.40;;;;;;5031648;28;20032;-89
2021/04/03 02:06:08;;;;;;;10.87;4.23;;;5.60;93.40;;;;;;5031495;28;20026;-89
2021/04/03 02:08:34;;;;;;;10.47;4.63;;;5.60;93.60;;;;;;5031134;28;20026;-89
2021/04/03 02:11:03;;;;;;;8.47;3.53;;;5.60;93.40;;;;;;5031425;28;20029;-89
2021/04/03 02:13:34;;;;;;;8.77;4.20;;;5.60;93.30;;;;;;5032418;28;20124;-89
2021/04/03 02:16:01;;;;;;;10.53;4.20;;;5.50;93.40;;;;;;5024185;28;20029;-86
2021/04/03 02:18:30;;;;;;;11.10;5.20;;;5.50;93.40;;;;;;5030311;28;20096;-88
2021/04/03 02:21:02;;;;;;;9.17;4.23;;;5.50;93.40;;;;;;5032020;28;20032;-88
2021/04/03 02:23:28;;;;;;;8.20;3.83;;;5.50;93.40;;;;;;5031523;28;20405;-88
2021/04/03 02:25:55;;;;;;;11.43;3.97;;;5.50;93.30;;;;;;5032678;28;20026;-88
2021/04/03 02:28:21;;;;;;;8.03;3.50;;;5.50;93.20;;;;;;5030984;28;20021;-88
2021/04/03 02:30:47;;;;;;;8.53;4.07;;;5.60;93.10;;;;;;5031453;28;20421;-88
2021/04/03 02:33:13;;;;;;;10.53;3.30;;;5.60;92.90;;;;;;5023312;28;20116;-88
2021/04/03 02:35:39;;;;;;;9.33;4.07;;;5.60;93.00;;;;;;5031529;28;20459;-88
2021/04/03 02:38:05;;;;;;;9.03;3.60;;;5.60;92.90;;;;;;5030078;28;20025;-88
2021/04/03 02:40:33;;;;;;;10.63;3.93;;;5.60;93.40;;;;;;5031803;28;20075;-88
2021/04/03 02:43:15;;;;;;;9.03;4.50;;;5.60;93.40;;;;;;5032652;28;20049;-88
2021/04/03 02:45:48;;;;;;;11.63;3.83;;;5.70;93.30;;;;;;5032687;28;20045;-88
2021/04/03 02:48:19;;;;;;;8.57;4.20;;;5.70;93.10;;;;;;5034138;28;20024;-89
2021/04/03 02:50:49;;;;;;;10.80;4.30;;;5.70;93.20;;;;;;5041788;28;20344;-88
2021/04/03 02:53:16;;;;;;;13.47;4.30;;;5.70;93.50;;;;;;5033144;28;20100;-87
2021/04/03 02:55:49;;;;;;;11.17;4.77;;;5.70;93.70;;;;;;5035338;28;20040;-88
2021/04/03 02:58:18;;;;;;;9.10;3.60;;;5.70;93.50;;;;;;5034741;28;20026;-88
2021/04/03 03:00:50;;;;;;;11.03;4.47;;;5.70;93.70;;;;;;5035209;28;20084;-88
2021/04/03 03:03:15;;;;;;;9.48;4.15;;;5.70;93.80;;;;;;5030905;28;20022;-88
2021/04/03 03:05:44;;;;;;;10.37;4.33;;;5.70;93.90;;;;;;5036538;28;20052;-88
2021/04/03 03:08:13;;;;;;;8.83;4.30;;;5.80;94.10;;;;;;5034669;28;20061;-88
2021/04/03 03:10:39;;;;;;;12.63;3.73;;;5.80;93.30;;;;;;5034994;28;20021;-88
2021/04/03 03:13:07;;;;;;;7.30;3.97;;;5.80;93.90;;;;;;5034404;28;20017;-88
2021/04/03 03:15:33;;;;;;;9.47;3.60;;;5.80;93.50;;;;;;5034424;28;20021;-89
2021/04/03 03:18:01;;;;;;;8.60;3.40;;;5.80;93.40;;;;;;5035475;28;20184;-89
2021/04/03 03:20:27;;;;;;;12.13;3.43;;;5.80;93.20;;;;;;5035970;28;20033;-88
2021/04/03 03:22:54;;;;;;;6.80;3.23;;;5.70;93.30;;;;;;5035140;28;20029;-89
2021/04/03 03:25:20;;;;;;;9.50;3.30;;;5.70;93.00;;;;;;5035249;28;20025;-89
2021/04/03 03:27:47;;;;;;;10.07;3.60;;;5.70;93.30;;;;;;5034924;28;20025;-89
2021/04/03 03:30:18;;;;;;;6.57;3.28;;;5.60;93.10;;;;;;5036894;28;20021;-89
2021/04/03 03:32:45;;;;;;;12.10;3.23;;;5.60;93.40;;;;;;5031456;28;20021;-88
2021/04/03 03:35:12;;;;;;;5.83;3.03;;;5.60;93.40;;;;;;5035416;28;20022;-89
2021/04/03 03:37:38;;;;;;;7.40;2.93;;;5.70;93.50;;;;;;5034659;28;20052;-89
2021/04/03 03:40:05;;;;;;;11.93;2.93;;;5.60;93.30;;;;;;5035635;28;20025;-89
2021/04/03 03:42:31;;;;;;;7.67;2.93;;;5.60;93.20;;;;;;5034348;28;20025;-89
2021/04/03 03:44:56;;;;;;;6.17;2.90;;;5.60;92.90;;;;;;5034600;28;20320;-89
2021/04/03 03:47:22;;;;;;;8.37;3.27;;;5.60;92.80;;;;;;5034181;28;20021;-89
2021/04/03 03:49:48;;;;;;;9.03;3.10;;;5.60;93.00;;;;;;5036091;28;20033;-89
2021/04/03 03:52:13;;;;;;;7.37;2.40;;;5.60;93.10;;;;;;5034714;28;20029;-90
2021/04/03 03:54:39;;;;;;;8.90;2.93;;;5.50;92.60;;;;;;5030023;28;20444;-89
2021/04/03 03:57:05;;;;;;;8.20;3.10;;;5.60;93.00;;;;;;5036057;28;20029;-89
2021/04/03 03:59:31;;;;;;;7.27;2.60;;;5.60;92.70;;;;;;5034217;28;20125;-89
2021/04/03 04:01:57;;;;;;;7.17;2.80;;;5.60;93.00;;;;;;5034486;28;20017;-89
2021/04/03 04:04:22;;;;;;;7.10;2.37;;;5.60;92.70;;;;;;5033459;28;20022;-89
2021/04/03 04:06:48;;;;;;;5.60;2.50;;;5.60;92.60;;;;;;5035892;28;20087;-89
2021/04/03 04:09:14;;;;;;;6.97;3.00;;;5.70;93.00;;;;;;5033732;28;20478;-89
2021/04/03 04:11:40;;;;;;;11.33;2.90;;;5.50;93.10;;;;;;5034402;28;20025;-90
2021/04/03 04:14:05;;;;;;;6.70;2.70;;;5.40;93.30;;;;;;5033451;28;20021;-88
2021/04/03 04:16:31;;;;;;;8.00;2.57;;;5.40;93.20;;;;;;5033918;28;20021;-88
2021/04/03 04:18:57;;;;;;;7.27;2.60;;;5.40;93.10;;;;;;5033173;28;20017;-88
2021/04/03 04:21:24;;;;;;;7.33;2.27;;;5.30;92.90;;;;;;5034524;28;20026;-89
2021/04/03 04:23:50;;;;;;;8.17;2.80;;;5.30;93.40;;;;;;5033809;28;20021;-88
2021/04/03 04:26:16;;;;;;;7.10;2.33;;;5.30;93.50;;;;;;5033912;28;20493;-89
2021/04/03 04:28:42;;;;;;;6.73;2.60;;;5.30;93.20;;;;;;5033786;28;20021;-89
2021/04/03 04:31:07;;;;;;;5.83;2.60;;;5.30;93.30;;;;;;5031150;28;20021;-89
2021/04/03 04:33:33;;;;;;;7.17;2.47;;;5.30;93.60;;;;;;5033435;28;20025;-89
2021/04/03 04:35:59;;;;;;;6.07;2.63;;;5.30;93.60;;;;;;5033187;28;20681;-88
2021/04/03 04:38:25;;;;;;;8.07;2.60;;;5.30;93.50;;;;;;5033523;28;20021;-89
2021/04/03 04:40:50;;;;;;;7.23;2.70;;;5.30;93.40;;;;;;5033625;28;20056;-89
2021/04/03 04:43:20;;;;;;;8.47;2.80;;;5.20;93.70;;;;;;5034798;28;20105;-89
2021/04/03 04:45:46;;;;;;;9.07;2.50;;;5.30;94.10;;;;;;5034245;28;20048;-89
2021/04/03 04:48:12;;;;;;;8.40;3.00;;;5.30;93.80;;;;;;5033786;28;20470;-89
2021/04/03 04:50:37;;;;;;;6.73;2.40;;;5.30;93.80;;;;;;5032330;28;20107;-89
2021/04/03 04:53:03;;;;;;;6.93;2.83;;;5.30;93.90;;;;;;5032438;28;20381;-89
2021/04/03 04:55:29;;;;;;;7.07;2.50;;;5.20;93.80;;;;;;5033976;28;20108;-89
2021/04/03 04:57:54;;;;;;;6.40;2.60;;;5.20;94.30;;;;;;5033484;28;20026;-89
2021/04/03 05:00:20;;;;;;;8.37;2.80;;;5.20;94.30;;;;;;5030305;28;20056;-89
2021/04/03 05:02:46;;;;;;;9.03;2.77;;;5.20;94.20;;;;;;5033514;28;20121;-89
2021/04/03 05:05:12;;;;;;;10.03;3.10;;;5.10;94.30;;;;;;5032605;28;20029;-89
2021/04/03 05:07:38;;;;;;;15.50;3.90;;;5.20;94.30;;;;;;5030482;28;20029;-89
2021/04/03 05:10:04;;;;;;;7.20;2.60;;;5.20;94.50;;;;;;5030366;28;20071;-88
2021/04/03 05:12:29;;;;;;;8.73;3.23;;;5.20;94.70;;;;;;5031998;28;20033;-89
2021/04/03 05:14:55;;;;;;;6.93;3.10;;;5.20;94.40;;;;;;5030962;28;20211;-89
2021/04/03 05:17:22;;;;;;;8.43;2.90;;;5.10;94.80;;;;;;5024059;28;20040;-89
2021/04/03 05:19:48;;;;;;;8.17;2.80;;;5.10;95.00;;;;;;5030711;28;20075;-89
2021/04/03 05:22:14;;;;;;;10.37;3.47;;;5.10;95.50;;;;;;5030731;28;20425;-89
2021/04/03 05:24:39;;;;;;;7.43;2.70;;;5.10;95.10;;;;;;5030581;28;20080;-88
2021/04/03 05:27:05;;;;;;;10.10;2.87;;;5.10;95.00;;;;;;5030594;28;20037;-89
2021/04/03 05:29:31;;;;;;;9.20;3.27;;;5.10;95.40;;;;;;5035356;28;20077;-89
2021/04/03 05:31:57;;;;;;;9.63;3.03;;;5.10;95.30;;;;;;5031587;28;20492;-90
2021/04/03 05:34:22;;;;;;;8.83;2.97;;;5.20;95.30;;;;;;5031270;28;20029;-88
2021/04/03 05:36:48;;;;;;;7.50;2.93;;;5.20;95.20;;;;;;5031160;28;20502;-88
2021/04/03 05:39:13;;;;;;;7.03;2.70;;;5.20;94.70;;;;;;5031334;28;20025;-89
2021/04/03 05:41:39;;;;;;;9.70;3.07;;;5.20;94.60;;;;;;5031032;28;20025;-88
2021/04/03 05:44:05;;;;;;;8.30;2.70;;;5.20;94.60;;;;;;5031065;28;20021;-88
2021/04/03 05:46:31;;;;;;;10.87;2.53;;;5.20;95.00;;;;;;5031114;28;20124;-88
2021/04/03 05:48:59;;;;;;;7.03;2.33;;;5.20;94.80;;;;;;5032206;28;20101;-88
2021/04/03 05:51:25;;;;;;;9.40;2.73;;;5.20;94.40;;;;;;5031117;28;20029;-88
2021/04/03 05:53:51;;;;;;;6.90;2.50;;;5.30;95.00;;;;;;5032534;28;20029;-89
2021/04/03 05:56:18;;;;;;;8.70;2.63;;;5.30;94.50;;;;;;5030830;28;20056;-88
2021/04/03 05:58:44;;;;;;;7.37;2.60;;;5.30;94.40;;;;;;5030870;28;20030;-91
2021/04/03 06:01:10;;;;;;;6.10;2.37;;;5.30;94.40;;;;;;5030803;28;20128;-88
2021/04/03 06:03:36;;;;;;;9.00;3.00;;;5.30;94.80;;;;;;5026096;28;20113;-89
2021/04/03 06:06:02;;;;;;;7.07;2.80;;;5.40;94.80;;;;;;5010887;28;20030;-90
2021/04/03 06:08:29;;;;;;;11.93;2.90;;;5.40;94.60;;;;;;5010885;28;20033;-89
2021/04/03 06:11:12;;;;;;;6.47;2.17;;;5.50;94.40;;;;;;5016644;28;20022;-87
2021/04/03 06:13:59;;;;;;;6.60;2.80;;;5.50;94.10;;;;;;5030886;28;20033;-89
2021/04/03 06:16:27;;;;;;;6.03;2.30;;;5.60;94.10;;;;;;5016772;28;20033;-88
2021/04/03 06:19:16;;;;;;;8.60;2.43;;;5.70;93.90;;;;;;5030911;28;20406;-88
2021/04/03 06:21:44;;;;;;;8.10;2.57;;;5.80;93.90;;;;;;5012025;28;20239;-88
2021/04/03 06:24:22;;;;;;;9.93;2.77;;;5.90;93.60;;;;;;5030712;28;20068;-88
2021/04/03 06:26:56;;;;;;;5.90;2.20;;;5.90;93.20;;;;;;5034540;28;20025;-88
2021/04/03 06:29:32;;;;;;;6.10;2.63;;;5.80;93.30;;;;;;5034646;28;20025;-88
2021/04/03 06:32:07;;;;;;;10.47;2.70;;;5.80;93.50;;;;;;5034851;28;20025;-88
2021/04/03 06:34:34;;;;;;;7.57;2.60;;;5.80;93.80;;;;;;5034469;28;20056;-88
2021/04/03 06:37:00;;;;;;;7.87;2.83;;;5.80;93.60;;;;;;5034535;28;20038;-88
2021/04/03 06:39:28;;;;;;;7.00;2.43;;;5.80;93.70;;;;;;5034672;28;20167;-88
2021/04/03 06:41:54;;;;;;;5.20;2.50;;;5.90;93.60;;;;;;5034496;28;20025;-89
2021/04/03 06:44:22;;;;;;;8.33;2.80;;;6.10;93.50;;;;;;5034476;28;20180;-88
2021/04/03 06:46:49;;;;;;;5.63;2.30;;;6.30;93.50;;;;;;5033918;28;20389;-89
2021/04/03 06:49:14;;;;;;;6.30;2.40;;;6.30;93.20;;;;;;5034493;28;20021;-88
2021/04/03 06:51:41;;;;;;;9.07;2.43;;;6.30;92.40;;;;;;5034334;28;20029;-88
2021/04/03 06:54:11;;;;;;;4.57;2.20;;;6.60;92.50;;;;;;5034341;28;20108;-89
2021/04/03 06:56:37;;;;;;;5.80;2.20;;;6.70;92.10;;;;;;5034228;28;20063;-90
2021/04/03 06:59:13;;;;;;;5.33;2.40;;;6.80;91.80;;;;;;5034331;28;20075;-89
2021/04/03 07:01:46;;;;;;;9.13;3.17;;;6.80;91.40;;;;;;5034227;28;20089;-89
2021/04/03 07:04:43;;;;;;;8.40;2.57;;;6.90;91.30;;;;;;5034246;28;20048;-89
2021/04/03 07:07:10;;;;;;;6.77;2.73;;;6.90;90.80;;;;;;5014299;28;20072;-89
2021/04/03 07:09:37;;;;;;;8.00;2.70;;;6.90;91.10;;;;;;5014263;28;20025;-88
2021/04/03 07:12:04;;;;;;;5.67;2.47;;;6.90;91.20;;;;;;5014186;28;20056;-90
2021/04/03 07:14:40;;;;;;;7.37;2.30;;;7.00;90.70;;;;;;5014071;28;20084;-88
2021/04/03 07:17:07;;;;;;;5.70;2.20;;;7.10;90.90;;;;;;5020724;28;20029;-89
2021/04/03 07:19:36;;;;;;;9.03;2.27;;;7.00;90.60;;;;;;5034016;28;20033;-88
2021/04/03 07:22:02;;;;;;;6.83;2.20;;;6.80;90.80;;;;;;5033630;28;20501;-89
2021/04/03 07:24:30;;;;;;;5.47;2.43;;;6.80;91.20;;;;;;5033305;28;20041;-91
2021/04/03 07:26:57;;;;;;;9.80;2.30;;;6.70;91.20;;;;;;5033684;28;20025;-89
2021/04/03 07:29:45;;;;;;;5.33;1.83;;;6.70;91.30;;;;;;5033594;28;20025;-89
2021/04/03 07:32:30;;;;;;;5.50;2.10;;;6.60;91.00;;;;;;5032973;28;20103;-89
2021/04/03 07:34:56;;;;;;;7.70;2.23;;;6.70;91.30;;;;;;5033700;28;20479;-89
2021/04/03 07:37:42;;;;;;;5.90;2.37;;;6.60;91.10;;;;;;5033596;28;20065;-89
2021/04/03 07:40:12;;;;;;;7.13;2.33;;;6.60;91.30;;;;;;5033364;28;20053;-88
2021/04/03 07:42:39;;;;;;;6.00;2.60;;;6.60;91.10;;;;;;5033409;28;20026;-90
2021/04/03 07:45:26;;;;;;;6.13;2.10;;;6.60;91.30;;;;;;5033487;28;20466;-89
2021/04/03 07:48:04;;;;;;;8.37;2.70;;;6.60;91.10;;;;;;5033188;28;20040;-89
2021/04/03 07:50:47;;;;;;;6.40;2.60;;;6.70;91.40;;;;;;5033031;28;20124;-89
2021/04/03 07:53:12;;;;;;;;;;;6.80;90.90;;;;;;5033668;28;20029;-89
2021/04/03 07:55:42;;;;;;;6.73;2.40;;;6.90;90.50;;;;;;5033293;28;19905;-88
2021/04/03 07:58:27;;;;;;;5.80;2.27;;;7.00;90.50;;;;;;5032942;28;20021;-88
2021/04/03 08:00:55;;;;;;;6.90;2.60;;;6.90;90.20;;;;;;5032810;28;20028;-88
2021/04/03 08:03:25;;;;;;;5.85;2.13;;;6.90;90.70;;;;;;5032526;28;20434;-88
2021/04/03 08:05:59;;;;;;;5.33;2.20;;;6.70;90.80;;;;;;5034097;28;20033;-88
2021/04/03 08:08:26;;;;;;;7.70;2.40;;;6.60;90.20;;;;;;5032775;28;20113;-89
2021/04/03 08:11:09;;;;;;;6.77;2.50;;;6.60;90.70;;;;;;5032956;28;20018;-88
2021/04/03 08:13:41;;;;;;;;;;;6.50;90.90;;;;;;5033188;28;20026;-88
2021/04/03 08:16:08;;;;;;;5.43;2.37;;;6.50;90.90;;;;;;5033510;28;19941;-88
2021/04/03 08:18:36;;;;;;;5.03;2.10;;;6.50;90.90;;;;;;5032530;28;20166;-88
2021/04/03 08:21:02;;;;;;;5.03;2.03;;;6.60;91.00;;;;;;5032841;28;20394;-88
2021/04/03 08:23:49;;;;;;;5.70;2.07;;;6.50;90.20;;;;;;5032485;28;20486;-89
2021/04/03 08:26:34;;;;;;;6.93;2.30;;;6.60;90.00;;;;;;5032888;28;20101;-89
2021/04/03 08:29:02;;;;;;;8.70;2.50;;;6.90;90.20;;;;;;5033230;28;20024;-89
2021/04/03 08:31:30;;;;;;;7.40;1.70;;;7.10;89.70;;;;;;5033459;28;20485;-88
2021/04/03 08:33:58;;;;;;;6.22;1.40;;;7.20;88.60;;;;;;5032321;28;20076;-89
2021/04/03 08:36:30;;;;;;;7.88;2.13;;;7.40;87.50;;;;;;5032028;28;20390;-88
2021/04/03 08:39:04;;;;;;;6.93;1.70;;;7.60;86.20;;;;;;5032318;28;20026;-88
2021/04/03 08:41:31;;;;;;;6.43;1.97;;;7.50;86.00;;;;;;5032443;28;20572;-88
2021/04/03 08:43:57;;;;;;;8.93;1.90;;;7.40;87.30;;;;;;5031720;28;20482;-88
2021/04/03 08:46:24;;;;;;;7.40;2.38;;;7.40;87.60;;;;;;5032024;28;20026;-88
2021/04/03 08:48:56;;;;;;;9.32;2.50;;;7.60;87.00;;;;;;5032234;28;20026;-90
2021/04/03 08:51:22;;;;;;;8.18;1.80;;;7.60;87.00;;;;;;5032525;28;20052;-88
2021/04/03 08:53:54;;;;;;;4.13;1.75;;;7.70;85.50;;;;;;5032251;28;20028;-90
2021/04/03 08:56:26;;;;;;;5.38;1.67;;;7.90;83.70;;;;;;5051291;28;20486;-89
2021/04/03 08:58:56;;;;;;;9.68;2.03;;;7.70;83.80;;;;;;5034204;28;20067;-89
2021/04/03 09:01:30;;;;;;;6.88;1.80;;;7.80;84.00;;;;;;5033141;28;20029;-89
2021/04/03 09:04:04;;;;;;;5.82;1.80;;;7.60;83.80;;;;;;5032792;28;20045;-88
2021/04/03 09:06:55;;;;;;;7.03;1.80;;;7.70;84.60;;;;;;5033149;28;20040;-88
2021/04/03 09:09:31;;;;;;;6.80;2.03;;;8.00;85.40;;;;;;5033493;28;20041;-88
2021/04/03 09:12:05;;;;;;;7.82;1.60;;;8.30;81.80;;;;;;5033264;28;20021;-88
2021/04/03 09:14:34;;;;;;;5.10;1.60;;;8.40;81.20;;;;;;5032864;28;20022;-89
2021/04/03 09:17:21;;;;;;;6.63;1.60;;;8.50;81.00;;;;;;5033599;28;20485;-88
2021/04/03 09:19:47;;;;;;;3.75;1.50;;;8.80;79.00;;;;;;5034191;28;20367;-89
2021/04/03 09:22:15;;;;;;;6.80;1.70;;;8.80;77.90;;;;;;5033686;28;20025;-89
2021/04/03 09:24:45;;;;;;;4.55;1.50;;;8.90;78.00;;;;;;5033747;28;20026;-91
2021/04/03 09:27:28;;;;;;;9.00;2.00;;;9.00;77.70;;;;;;5033836;28;20121;-90
2021/04/03 09:30:05;;;;;;;7.05;2.10;;;9.10;77.90;;;;;;5033038;28;20060;-88
2021/04/03 09:32:43;;;;;;;7.18;1.60;;;9.10;76.30;;;;;;5033902;28;20029;-88
2021/04/03 09:35:11;;;;;;;5.15;1.98;;;9.30;76.20;;;;;;5032420;28;20034;-89
2021/04/03 09:37:38;;;;;;;6.93;2.03;;;9.20;76.20;;;;;;5034827;28;20481;-90
2021/04/03 09:40:07;;;;;;;6.57;1.90;;;8.90;75.40;;;;;;5031226;28;20029;-89
2021/04/03 09:42:33;;;;;;;5.47;1.80;;;8.70;76.10;;;;;;5030828;28;20478;-89
2021/04/03 09:45:03;;;;;;;8.90;2.22;;;8.60;77.60;;;;;;5030978;28;20025;-90
2021/04/03 09:47:31;;;;;;;6.72;1.77;;;8.60;77.80;;;;;;5031267;28;20029;-89
2021/04/03 09:49:57;;;;;;;8.45;2.15;;;8.70;76.90;;;;;;5031071;28;20033;-88
2021/04/03 09:52:25;;;;;;;8.85;2.22;;;8.80;77.50;;;;;;5031114;28;20026;-89
2021/04/03 09:54:52;;;;;;;4.65;1.70;;;9.00;78.30;;;;;;5031110;28;20029;-89
2021/04/03 09:57:44;;;;;;;4.53;1.58;;;9.20;75.90;;;;;;5031258;28;20196;-90
2021/04/03 10:00:10;;;;;;;7.95;2.35;;;9.40;74.00;;;;;;5031017;28;20026;-89
2021/04/03 10:02:39;;;;;;;7.85;1.90;;;9.50;74.70;;;;;;5030944;28;20499;-89
2021/04/03 10:05:05;;;;;;;6.32;1.65;;;9.70;74.30;;;;;;5030863;28;20029;-90
2021/04/03 10:07:31;;;;;;;6.82;1.65;;;9.70;73.40;;;;;;5030843;28;20033;-90
2021/04/03 10:09:57;;;;;;;6.03;1.50;;;9.80;72.90;;;;;;5030895;28;20184;-90
2021/04/03 10:12:23;;;;;;;4.85;1.67;;;9.90;72.10;;;;;;5031218;28;20071;-89
2021/04/03 10:14:48;;;;;;;3.78;1.65;;;9.90;71.00;;;;;;5031010;28;20475;-90
2021/04/03 10:17:15;;;;;;;5.43;1.60;;;10.10;69.90;;;;;;5030607;28;20416;-91
2021/04/03 10:19:40;;;;;;;6.90;2.13;;;10.30;72.40;;;;;;5030615;28;20115;-90
2021/04/03 10:22:06;;;;;;;7.05;1.92;;;10.40;70.50;;;;;;5030947;28;20076;-90
2021/04/03 10:24:38;;;;;;;5.03;1.60;;;10.20;71.30;;;;;;5031041;28;20044;-90
2021/04/03 10:27:14;;;;;;;7.78;2.00;;;9.80;70.70;;;;;;5029288;28;20556;-90
2021/04/03 10:30:02;;;;;;;7.53;1.90;;;9.60;71.80;;;;;;5030719;28;20179;-90
2021/04/03 10:32:29;;;;;;;7.25;2.10;;;9.30;72.70;;;;;;5030730;28;20061;-90
2021/04/03 10:34:59;;;;;;;7.07;1.65;;;9.20;72.40;;;;;;5030633;28;20041;-91
2021/04/03 10:37:25;;;;;;;6.70;1.85;;;9.40;73.00;;;;;;5030668;28;20030;-90
2021/04/03 10:39:51;;;;;;;5.68;1.42;;;9.40;72.20;;;;;;5030628;28;20048;-90
2021/04/03 10:42:17;;;;;;;5.40;1.98;;;9.40;72.00;;;;;;5031088;28;20494;-89
2021/04/03 10:45:04;;;;;;;7.18;1.90;;;9.80;71.20;;;;;;5030773;28;20030;-89
2021/04/03 10:47:30;;;;;;;6.63;1.98;;;10.20;71.80;;;;;;5030604;28;20115;-90
2021/04/03 10:49:57;;;;;;;5.60;1.63;;;10.70;69.10;;;;;;5030641;28;20068;-90
2021/04/03 10:52:24;;;;;;;4.97;1.73;;;10.90;69.20;;;;;;5030373;28;20078;-90
2021/04/03 10:54:50;;;;;;;7.75;1.85;;;10.70;67.40;;;;;;5030409;28;20033;-90
2021/04/03 10:57:17;;;;;;;6.05;2.40;;;10.80;68.00;;;;;;5030450;28;20470;-91
2021/04/03 10:59:52;;;;;;;5.95;1.70;;;10.70;68.30;;;;;;5030024;28;20039;-90
2021/04/03 11:02:17;;;;;;;6.47;2.20;;;10.80;68.00;;;;;;5030260;28;20479;-91
2021/04/03 11:04:43;;;;;;;8.48;2.40;;;10.80;67.90;;;;;;5030644;28;20026;-90
2021/04/03 11:07:15;;;;;;;5.95;1.70;;;10.40;68.00;;;;;;5031505;28;20030;-90
2021/04/03 11:10:01;;;;;;;7.07;1.70;;;10.60;66.90;;;;;;5034903;28;20029;-90
2021/04/03 11:12:37;;;;;;;6.18;1.60;;;10.70;66.40;;;;;;5035974;28;20424;-90
2021/04/03 11:15:25;;;;;;;6.03;1.60;;;11.30;66.80;;;;;;5034933;28;20018;-90
2021/04/03 11:18:16;;;;;;;3.13;1.48;;;11.30;66.00;;;;;;5035818;28;20453;-90
2021/04/03 11:20:52;;;;;;;8.52;1.80;;;11.60;64.30;;;;;;5036664;28;20105;-90
2021/04/03 11:30:24;;;;;;;5.85;2.30;;;11.60;63.00;;;;;;5044975;23;20052;-92
2021/04/03 16:51:26;;;;;;;3.88;0.90;;;10.60;52.50;;;;;;4362362;26;20049;-93
2021/04/03 16:53:52;;;;;;;3.80;1.00;;;10.80;52.80;;;;;;5040738;28;20044;-93
2021/04/03 16:56:17;;;;;;;5.32;1.35;;;10.60;53.00;;;;;;5041674;28;20021;-93
2021/04/03 17:34:55;;;;;;;5.50;1.90;;;9.90;56.20;;;;;;5007456;28;20488;-87
2021/04/03 17:37:24;;;;;;;3.58;1.27;;;9.90;55.80;;;;;;5005226;28;20028;-87
2021/04/03 17:39:50;;;;;;;3.85;1.48;;;9.90;55.90;;;;;;5003984;28;20125;-87
2021/04/03 17:42:19;;;;;;;4.78;1.10;;;9.90;55.90;;;;;;4991020;28;21477;-86
2021/04/03 17:44:47;;;;;;;5.55;1.20;;;9.90;56.30;;;;;;4990438;28;20125;-86
2021/04/03 17:47:13;;;;;;;4.65;1.08;;;9.80;57.00;;;;;;4991354;28;20019;-87
2021/04/03 17:49:39;;;;;;;4.60;1.45;;;9.80;56.70;;;;;;4998500;28;20406;-87
2021/04/03 17:52:05;;;;;;;4.25;1.60;;;9.80;56.90;;;;;;4994326;28;20034;-87
2021/04/03 17:54:31;;;;;;;5.10;1.35;;;9.80;56.20;;;;;;4998407;28;20026;-87
2021/04/03 17:56:57;;;;;;;3.88;1.20;;;9.80;57.50;;;;;;4990865;28;20113;-87
2021/04/03 17:59:23;;;;;;;5.13;1.60;;;9.80;57.80;;;;;;4992871;28;20033;-88
2021/04/03 18:01:48;;;;;;;3.53;1.20;;;9.80;58.00;;;;;;4991645;28;20041;-88
2021/04/03 18:04:17;;;;;;;4.22;1.40;;;9.80;58.00;;;;;;4987266;28;20037;-88
2021/04/03 18:06:46;;;;;;;4.80;1.30;;;9.80;58.20;;;;;;4984350;28;20030;-88
2021/04/03 18:09:12;;;;;;;7.53;2.08;;;9.80;58.20;;;;;;5003979;28;20050;-87
2021/04/03 18:11:41;;;;;;;3.97;1.50;;;9.80;58.50;;;;;;4992618;28;20479;-87
2021/04/03 18:14:06;;;;;;;8.10;1.55;;;9.80;58.40;;;;;;5002098;28;20022;-87
2021/04/03 18:16:54;;;;;;;;;;;;;;;;;;;;;
2021/04/03 18:19:25;;;;;;;5.75;1.60;;;9.80;58.70;;;;;;4998250;28;20390;-87
2021/04/03 18:22:04;;;;;;;4.95;1.80;;;9.90;58.80;;;;;;4999010;28;20030;-86
2021/04/03 18:24:30;;;;;;;4.78;1.88;;;9.80;59.10;;;;;;5010775;28;20084;-86
2021/04/03 18:27:00;;;;;;;5.60;1.70;;;9.80;59.00;;;;;;4994380;28;20578;-86
2021/04/03 18:29:26;;;;;;;6.25;1.65;;;9.70;58.80;;;;;;4995615;28;20053;-86
2021/04/03 18:31:57;;;;;;;5.38;1.60;;;9.70;59.50;;;;;;4995974;28;20391;-88
2021/04/03 18:34:23;;;;;;;5.75;1.42;;;9.70;60.00;;;;;;4997743;28;20039;-86
2021/04/03 18:36:48;;;;;;;5.45;1.60;;;9.70;60.00;;;;;;4994620;28;20023;-86
2021/04/03 18:39:14;;;;;;;6.53;1.67;;;9.70;60.00;;;;;;4993208;28;20085;-87
2021/04/03 18:41:40;;;;;;;4.65;1.60;;;9.70;59.70;;;;;;5006699;28;20030;-86
2021/04/03 18:44:05;;;;;;;8.32;1.83;;;9.70;60.10;;;;;;4990220;28;20491;-86
2021/04/03 18:46:31;;;;;;;5.28;1.85;;;9.70;60.50;;;;;;4990653;28;20572;-86
2021/04/03 18:48:57;;;;;;;5.55;1.67;;;9.70;60.10;;;;;;4990657;28;20492;-86
2021/04/03 18:51:23;;;;;;;3.88;1.65;;;9.60;60.30;;;;;;5007848;28;20027;-87
2021/04/03 18:53:50;;;;;;;8.40;1.83;;;9.60;60.50;;;;;;4993342;28;20018;-86
2021/04/03 18:56:18;;;;;;;6.05;1.98;;;9.60;60.80;;;;;;4989085;28;20046;-86
2021/04/03 18:58:44;;;;;;;6.20;2.30;;;9.60;60.80;;;;;;4991719;28;20034;-85
2021/04/03 19:01:10;;;;;;;6.35;1.70;;;9.50;61.60;;;;;;4992963;28;20151;-85
2021/04/03 19:03:35;;;;;;;5.35;2.22;;;9.50;61.70;;;;;;5004801;28;20035;-86
2021/04/03 19:06:01;;;;;;;6.28;2.65;;;9.40;61.70;;;;;;5006820;28;20022;-86
2021/04/03 19:08:28;;;;;;;7.32;3.30;;;9.40;61.30;;;;;;4990740;28;20045;-87